createdAt,value
2022-12-04T00:01:09.438Z,1.30
2022-12-04T00:03:36.934Z,1.30
2022-12-04T00:06:10.460Z,1.30
2022-12-04T00:08:37.620Z,1.30
2022-12-04T00:11:06.182Z,1.30
2022-12-04T00:13:33.412Z,1.30
2022-12-04T00:16:00.670Z,1.30
2022-12-04T00:18:27.703Z,1.30
2022-12-04T00:20:54.471Z,1.30
2022-12-04T00:23:21.160Z,1.30
2022-12-04T00:25:48.901Z,1.30
2022-12-04T00:28:19.298Z,1.30
2022-12-04T00:30:46.472Z,1.30
2022-12-04T00:33:13.827Z,1.30
2022-12-04T00:35:41.064Z,1.30
2022-12-04T00:38:07.716Z,1.30
2022-12-04T00:40:34.526Z,1.30
2022-12-04T00:43:02.962Z,1.30
2022-12-04T00:45:29.662Z,1.30
2022-12-04T00:47:56.398Z,1.30
2022-12-04T00:50:24.463Z,1.20
2022-12-04T00:52:51.112Z,1.30
2022-12-04T00:55:18.075Z,1.20
2022-12-04T00:57:44.816Z,1.20
2022-12-04T01:00:11.691Z,1.20
2022-12-04T01:02:38.368Z,1.20
2022-12-04T01:05:05.300Z,1.20
2022-12-04T01:07:32.067Z,1.20
2022-12-04T01:09:58.915Z,1.20
2022-12-04T01:12:25.704Z,1.20
2022-12-04T01:14:52.398Z,1.20
2022-12-04T01:17:19.138Z,1.20
2022-12-04T01:19:45.869Z,1.20
2022-12-04T01:22:12.588Z,1.20
2022-12-04T01:24:39.409Z,1.20
2022-12-04T01:27:06.050Z,1.20
2022-12-04T01:29:32.697Z,1.20
2022-12-04T01:31:59.424Z,1.20
2022-12-04T01:34:26.333Z,1.20
2022-12-04T01:36:53.079Z,1.20
2022-12-04T01:39:19.742Z,1.20
2022-12-04T01:41:46.921Z,1.20
2022-12-04T01:44:20.446Z,1.20
2022-12-04T01:46:51.726Z,1.20
2022-12-04T01:49:23.581Z,1.20
2022-12-04T01:51:54.554Z,1.20
2022-12-04T01:54:31.770Z,1.20
2022-12-04T01:57:12.981Z,1.20
2022-12-04T02:00:03.467Z,1.20
2022-12-04T02:02:34.353Z,1.20
2022-12-04T02:05:03.456Z,1.20
2022-12-04T02:07:30.281Z,1.20
2022-12-04T02:10:03.552Z,1.20
2022-12-04T02:12:44.440Z,1.10
2022-12-04T02:15:21.135Z,1.20
2022-12-04T02:17:59.967Z,1.10
2022-12-04T02:21:08.146Z,1.10
2022-12-04T02:23:49.499Z,1.10
2022-12-04T02:26:37.765Z,1.10
2022-12-04T02:29:34.202Z,1.10
2022-12-04T02:32:22.460Z,1.10
2022-12-04T02:35:08.026Z,1.00
2022-12-04T02:37:43.324Z,1.00
2022-12-04T02:40:32.706Z,1.00
2022-12-04T02:43:08.549Z,1.10
2022-12-04T02:45:44.424Z,1.00
2022-12-04T02:48:15.476Z,1.00
2022-12-04T02:50:42.236Z,1.00
2022-12-04T02:53:14.799Z,1.00
2022-12-04T02:55:47.140Z,1.00
2022-12-04T02:58:20.213Z,1.00
2022-12-04T03:00:48.498Z,1.00
2022-12-04T03:03:22.066Z,1.00
2022-12-04T03:06:03.450Z,1.00
2022-12-04T03:08:40.295Z,1.00
2022-12-04T03:11:07.120Z,1.00
2022-12-04T03:13:41.011Z,1.00
2022-12-04T03:16:21.024Z,1.00
2022-12-04T03:19:10.665Z,1.00
2022-12-04T03:21:41.445Z,1.00
2022-12-04T03:24:30.937Z,1.00
2022-12-04T03:27:12.914Z,0.90
2022-12-04T03:29:55.260Z,0.90
2022-12-04T03:32:25.097Z,0.90
2022-12-04T03:35:09.831Z,0.90
2022-12-04T03:37:43.434Z,0.90
2022-12-04T03:40:19.663Z,0.90
2022-12-04T03:42:52.982Z,0.90
2022-12-04T03:45:28.477Z,0.90
2022-12-04T03:48:23.827Z,0.90
2022-12-04T03:51:06.538Z,0.90
2022-12-04T03:53:39.285Z,0.90
2022-12-04T03:56:26.286Z,0.90
2022-12-04T03:58:58.025Z,0.90
2022-12-04T04:01:30.251Z,0.90
2022-12-04T04:03:59.284Z,0.80
2022-12-04T04:06:30.913Z,0.80
2022-12-04T04:09:03.829Z,0.80
2022-12-04T04:11:40.427Z,0.80
2022-12-04T04:14:42.282Z,0.80
2022-12-04T04:17:37.990Z,0.80
2022-12-04T04:20:33.019Z,0.80
2022-12-04T04:23:21.011Z,0.80
2022-12-04T04:25:49.139Z,0.80
2022-12-04T04:28:29.492Z,0.80
2022-12-04T04:31:13.002Z,0.80
2022-12-04T04:33:48.386Z,0.80
2022-12-04T04:36:29.833Z,0.80
2022-12-04T04:39:09.689Z,0.80
2022-12-04T04:41:54.196Z,0.80
2022-12-04T04:44:33.843Z,0.80
2022-12-04T04:47:04.107Z,0.80
2022-12-04T04:49:33.937Z,0.80
2022-12-04T04:52:01.972Z,0.80
2022-12-04T04:54:30.980Z,0.80
2022-12-04T04:56:57.743Z,0.80
2022-12-04T04:59:24.398Z,0.80
2022-12-04T05:01:51.073Z,0.80
2022-12-04T05:04:20.392Z,0.80
2022-12-04T05:06:48.839Z,0.80
2022-12-04T05:09:15.578Z,0.80
2022-12-04T05:11:42.250Z,0.80
2022-12-04T05:14:09.598Z,0.80
2022-12-04T05:16:36.589Z,0.80
2022-12-04T05:19:23.542Z,0.80
2022-12-04T05:21:50.229Z,0.80
2022-12-04T05:24:17.080Z,0.80
2022-12-04T05:26:44.167Z,0.80
2022-12-04T05:29:10.785Z,0.70
2022-12-04T05:31:37.463Z,0.80
2022-12-04T05:34:04.146Z,0.80
2022-12-04T05:36:30.893Z,0.80
2022-12-04T05:38:57.564Z,0.80
2022-12-04T05:41:24.465Z,0.80
2022-12-04T05:43:51.143Z,0.80
2022-12-04T05:46:18.118Z,0.80
2022-12-04T05:48:44.803Z,0.80
2022-12-04T05:51:12.102Z,0.80
2022-12-04T05:53:39.113Z,0.80
2022-12-04T05:56:07.393Z,0.80
2022-12-04T05:58:36.111Z,0.80
2022-12-04T06:01:12.824Z,0.80
2022-12-04T06:03:39.561Z,0.80
2022-12-04T06:06:16.192Z,0.80
2022-12-04T06:08:48.124Z,0.80
2022-12-04T06:11:23.752Z,0.80
2022-12-04T06:13:51.094Z,0.80
2022-12-04T06:16:20.724Z,0.80
2022-12-04T06:18:56.204Z,0.80
2022-12-04T06:21:24.883Z,0.80
2022-12-04T06:23:52.490Z,0.80
2022-12-04T06:26:20.096Z,0.80
2022-12-04T06:28:47.105Z,0.80
2022-12-04T06:31:16.455Z,0.80
2022-12-04T06:33:43.453Z,0.80
2022-12-04T06:36:16.261Z,0.80
2022-12-04T06:38:43.583Z,0.80
2022-12-04T06:41:13.077Z,0.80
2022-12-04T06:43:40.815Z,0.80
2022-12-04T06:46:10.586Z,0.80
2022-12-04T06:48:38.147Z,0.80
2022-12-04T06:51:07.468Z,0.80
2022-12-04T06:53:34.978Z,0.80
2022-12-04T06:56:04.402Z,0.90
2022-12-04T06:58:31.985Z,0.80
2022-12-04T07:00:59.200Z,0.80
2022-12-04T07:03:26.786Z,0.80
2022-12-04T07:05:53.431Z,0.80
2022-12-04T07:08:20.144Z,0.80
2022-12-04T07:10:46.926Z,0.80
2022-12-04T07:13:14.530Z,0.80
2022-12-04T07:15:41.209Z,0.80
2022-12-04T07:18:07.875Z,0.80
2022-12-04T07:20:34.602Z,0.80
2022-12-04T07:23:07.184Z,0.80
2022-12-04T07:25:38.596Z,0.80
2022-12-04T07:28:05.367Z,0.80
2022-12-04T07:30:32.054Z,0.80
2022-12-04T07:32:58.689Z,0.80
2022-12-04T07:35:25.319Z,0.90
2022-12-04T07:37:51.949Z,0.80
2022-12-04T07:40:22.109Z,0.80
2022-12-04T07:42:48.832Z,0.80
2022-12-04T07:45:15.952Z,0.90
2022-12-04T07:47:42.789Z,0.90
2022-12-04T07:50:09.808Z,0.90
2022-12-04T07:52:37.892Z,0.90
2022-12-04T07:55:08.276Z,0.90
2022-12-04T07:57:34.962Z,0.90
2022-12-04T08:00:01.695Z,0.90
2022-12-04T08:02:28.365Z,0.90
2022-12-04T08:04:55.056Z,0.90
2022-12-04T08:07:21.758Z,0.90
2022-12-04T08:09:48.346Z,0.90
2022-12-04T08:12:14.976Z,0.90
2022-12-04T08:14:41.620Z,0.90
2022-12-04T08:17:08.285Z,0.90
2022-12-04T08:19:34.945Z,0.90
2022-12-04T08:22:01.663Z,0.90
2022-12-04T08:24:28.357Z,0.90
2022-12-04T08:26:55.006Z,1.00
2022-12-04T08:29:21.730Z,1.00
2022-12-04T08:31:48.701Z,1.00
2022-12-04T08:34:15.475Z,1.00
2022-12-04T08:36:42.238Z,1.00
2022-12-04T08:39:11.004Z,1.00
2022-12-04T08:41:37.649Z,1.00
2022-12-04T08:44:04.697Z,1.00
2022-12-04T08:46:31.653Z,1.00
2022-12-04T08:48:58.681Z,1.00
2022-12-04T08:51:28.856Z,1.00
2022-12-04T08:56:31.078Z,1.10
2022-12-04T08:58:59.438Z,1.10
2022-12-04T09:01:27.301Z,1.10
2022-12-04T09:03:55.007Z,1.10
2022-12-04T09:06:24.367Z,1.10
2022-12-04T09:08:55.309Z,1.10
2022-12-04T09:11:24.656Z,1.10
2022-12-04T09:13:52.260Z,1.20
2022-12-04T09:16:22.071Z,1.20
2022-12-04T09:18:49.102Z,1.20
2022-12-04T09:21:18.112Z,1.20
2022-12-04T09:23:45.227Z,1.20
2022-12-04T09:26:22.778Z,1.20
2022-12-04T09:28:50.445Z,1.20
2022-12-04T09:31:18.332Z,1.20
2022-12-04T09:33:45.189Z,1.20
2022-12-04T09:36:16.043Z,1.30
2022-12-04T09:38:44.666Z,1.30
2022-12-04T09:41:30.028Z,1.30
2022-12-04T09:44:15.855Z,1.30
2022-12-04T09:47:10.337Z,1.30
2022-12-04T09:49:56.244Z,1.40
2022-12-04T09:52:41.116Z,1.40
2022-12-04T09:55:33.354Z,1.40
2022-12-04T09:58:04.244Z,1.40
2022-12-04T10:00:33.622Z,1.40
2022-12-04T10:03:12.349Z,1.40
2022-12-04T10:06:08.097Z,1.40
2022-12-04T10:08:43.938Z,1.50
2022-12-04T10:11:44.450Z,1.50
2022-12-04T10:14:26.454Z,1.50
2022-12-04T10:17:08.097Z,1.50
2022-12-04T10:19:54.677Z,1.60
2022-12-04T10:22:42.095Z,1.60
2022-12-04T10:25:22.818Z,1.60
2022-12-04T10:28:08.217Z,1.60
2022-12-04T10:30:37.923Z,1.60
2022-12-04T10:33:36.955Z,1.60
2022-12-04T10:36:04.281Z,1.60
2022-12-04T10:38:50.100Z,1.60
2022-12-04T10:41:40.208Z,1.60
2022-12-04T10:44:19.201Z,1.60
2022-12-04T10:46:46.836Z,1.70
2022-12-04T10:49:17.243Z,1.70
2022-12-04T10:51:44.872Z,1.70
2022-12-04T10:54:33.967Z,1.70
2022-12-04T10:57:07.932Z,1.70
2022-12-04T10:59:34.801Z,1.70
2022-12-04T11:02:12.550Z,1.70
2022-12-04T11:04:41.862Z,1.80
2022-12-04T11:07:20.613Z,1.80
2022-12-04T11:10:22.188Z,1.80
2022-12-04T11:13:01.486Z,1.80
2022-12-04T11:15:29.243Z,1.80
2022-12-04T11:18:06.819Z,1.80
2022-12-04T11:20:33.647Z,1.80
2022-12-04T11:23:00.417Z,1.80
2022-12-04T11:25:33.972Z,1.90
2022-12-04T11:28:06.326Z,1.90
2022-12-04T11:30:35.886Z,1.90
2022-12-04T11:33:04.745Z,1.90
2022-12-04T11:35:32.644Z,1.90
2022-12-04T11:38:15.393Z,1.90
2022-12-04T11:41:22.444Z,2.00
2022-12-04T11:43:51.372Z,2.00
2022-12-04T11:46:23.458Z,2.00
2022-12-04T11:48:50.672Z,2.00
2022-12-04T11:51:29.266Z,2.00
2022-12-04T11:54:28.490Z,2.00
2022-12-04T11:57:50.688Z,2.00
2022-12-04T12:00:19.828Z,2.00
2022-12-04T12:03:04.539Z,2.10
2022-12-04T12:05:43.627Z,2.10
2022-12-04T12:08:28.654Z,2.00
2022-12-04T12:11:05.495Z,2.10
2022-12-04T12:14:06.830Z,2.10
2022-12-04T12:17:05.544Z,2.10
2022-12-04T12:20:00.143Z,2.10
2022-12-04T12:22:55.274Z,2.10
2022-12-04T12:25:32.554Z,2.20
2022-12-04T12:28:15.492Z,2.20
2022-12-04T12:30:54.456Z,2.20
2022-12-04T12:33:24.087Z,2.20
2022-12-04T12:35:59.473Z,2.20
2022-12-04T12:38:37.811Z,2.20
2022-12-04T12:41:15.463Z,2.20
2022-12-04T12:43:47.174Z,2.30
2022-12-04T12:46:20.784Z,2.30
2022-12-04T12:49:05.081Z,2.30
2022-12-04T12:51:43.783Z,2.40
2022-12-04T12:54:35.741Z,2.40
2022-12-04T12:57:26.479Z,2.40
2022-12-04T12:59:57.928Z,2.40
2022-12-04T13:02:34.359Z,2.40
2022-12-04T13:05:06.957Z,2.40
2022-12-04T13:08:05.335Z,2.40
2022-12-04T13:10:37.945Z,2.50
2022-12-04T13:13:12.139Z,2.50
2022-12-04T13:15:49.213Z,2.50
2022-12-04T13:18:28.917Z,2.50
2022-12-04T13:20:59.472Z,2.50
2022-12-04T13:23:37.621Z,2.50
2022-12-04T13:26:24.402Z,2.60
2022-12-04T13:29:21.329Z,2.60
2022-12-04T13:32:00.680Z,2.60
2022-12-04T13:34:37.623Z,2.60
2022-12-04T13:37:36.345Z,2.60
2022-12-04T13:40:15.413Z,2.60
2022-12-04T13:42:42.369Z,2.60
2022-12-04T13:45:24.797Z,2.60
2022-12-04T13:48:01.306Z,2.70
2022-12-04T13:50:34.571Z,2.70
2022-12-04T13:53:01.400Z,2.60
2022-12-04T13:55:57.058Z,2.70
2022-12-04T13:58:30.455Z,2.70
2022-12-04T14:01:22.251Z,2.70
2022-12-04T14:03:55.411Z,2.70
2022-12-04T14:06:35.133Z,2.70
2022-12-04T14:09:07.213Z,2.70
2022-12-04T14:11:48.350Z,2.70
2022-12-04T14:14:36.460Z,2.70
2022-12-04T14:17:04.588Z,2.70
2022-12-04T14:19:36.620Z,2.70
2022-12-04T14:22:03.448Z,2.70
2022-12-04T14:24:30.578Z,2.70
2022-12-04T14:27:11.784Z,2.70
2022-12-04T14:29:46.119Z,2.70
2022-12-04T14:32:21.421Z,2.70
2022-12-04T14:34:49.127Z,2.70
2022-12-04T14:37:33.998Z,2.70
2022-12-04T14:40:02.939Z,2.70
2022-12-04T14:42:37.607Z,2.70
2022-12-04T14:45:17.307Z,2.70
2022-12-04T14:48:02.935Z,2.70
2022-12-04T14:50:46.823Z,2.70
2022-12-04T14:53:53.282Z,2.70
2022-12-04T14:57:07.088Z,2.70
2022-12-04T14:59:49.276Z,2.70
2022-12-04T15:02:18.393Z,2.70
2022-12-04T15:04:47.326Z,2.70
2022-12-04T15:07:23.816Z,2.70
2022-12-04T15:10:14.290Z,2.70
2022-12-04T15:12:47.178Z,2.70
2022-12-04T15:15:22.192Z,2.70
2022-12-04T15:18:21.473Z,2.70
2022-12-04T15:20:48.093Z,2.70
2022-12-04T15:23:43.962Z,2.70
2022-12-04T15:26:20.908Z,2.70
2022-12-04T15:28:56.068Z,2.70
2022-12-04T15:31:27.049Z,2.70
2022-12-04T15:33:59.464Z,2.70
2022-12-04T15:36:29.239Z,2.70
2022-12-04T15:38:55.952Z,2.70
2022-12-04T15:41:31.126Z,2.70
2022-12-04T15:44:01.656Z,2.70
2022-12-04T15:46:35.418Z,2.70
2022-12-04T15:49:18.662Z,2.70
2022-12-04T15:51:49.302Z,2.70
2022-12-04T15:54:22.271Z,2.70
2022-12-04T15:57:05.047Z,2.70
2022-12-04T15:59:34.489Z,2.70
2022-12-04T16:02:21.355Z,2.70
2022-12-04T16:04:48.008Z,2.70
2022-12-04T16:07:27.071Z,2.70
2022-12-04T16:10:02.899Z,2.70
2022-12-04T16:12:32.261Z,2.70
2022-12-04T16:14:59.164Z,2.70
2022-12-04T16:17:31.784Z,2.70
2022-12-04T16:19:59.210Z,2.70
2022-12-04T16:22:26.953Z,2.70
2022-12-04T16:24:54.391Z,2.70
2022-12-04T16:27:23.159Z,2.70
2022-12-04T16:29:50.745Z,2.70
2022-12-04T16:32:20.715Z,2.70
2022-12-04T16:34:48.213Z,2.70
2022-12-04T16:37:20.502Z,2.70
2022-12-04T16:39:47.547Z,2.70
2022-12-04T16:42:20.974Z,2.70
2022-12-04T16:44:48.057Z,2.70
2022-12-04T16:47:15.594Z,2.70
2022-12-04T16:49:43.818Z,2.70
2022-12-04T16:52:13.622Z,2.70
2022-12-04T16:54:40.868Z,2.70
2022-12-04T16:57:08.982Z,2.70
2022-12-04T16:59:36.182Z,2.70
2022-12-04T17:02:06.308Z,2.70
2022-12-04T17:04:33.097Z,2.70
2022-12-04T17:06:59.794Z,2.70
2022-12-04T17:09:26.473Z,2.70
2022-12-04T17:11:53.341Z,2.70
2022-12-04T17:14:20.321Z,2.70
2022-12-04T17:16:47.467Z,2.70
2022-12-04T17:19:15.193Z,2.70
2022-12-04T17:21:42.210Z,2.70
2022-12-04T17:24:09.775Z,2.70
2022-12-04T17:26:36.920Z,2.70
2022-12-04T17:29:03.859Z,2.60
2022-12-04T17:31:30.798Z,2.60
2022-12-04T17:33:57.829Z,2.60
2022-12-04T17:36:27.498Z,2.60
2022-12-04T17:38:56.038Z,2.70
2022-12-04T17:41:23.185Z,2.70
2022-12-04T17:43:50.443Z,2.70
2022-12-04T17:46:21.890Z,2.70
2022-12-04T17:48:49.122Z,2.70
2022-12-04T17:51:23.496Z,2.70
2022-12-04T17:53:50.774Z,2.60
2022-12-04T17:56:22.915Z,2.70
2022-12-04T17:58:50.527Z,2.70
2022-12-04T18:01:20.798Z,2.70
2022-12-04T18:03:58.196Z,2.70
2022-12-04T18:06:26.031Z,2.70
2022-12-04T18:08:53.555Z,2.70
2022-12-04T18:11:22.074Z,2.70
2022-12-04T18:13:53.304Z,2.70
2022-12-04T18:16:20.285Z,2.70
2022-12-04T18:18:47.589Z,2.70
2022-12-04T18:21:15.384Z,2.70
2022-12-04T18:23:45.706Z,2.60
2022-12-04T18:26:18.140Z,2.60
2022-12-04T18:28:45.470Z,2.60
2022-12-04T18:31:13.155Z,2.60
2022-12-04T18:33:42.157Z,2.70
2022-12-04T18:36:13.768Z,2.60
2022-12-04T18:38:40.503Z,2.70
2022-12-04T18:41:09.549Z,2.70
2022-12-04T18:43:38.208Z,2.70
2022-12-04T18:46:08.499Z,2.70
2022-12-04T18:48:36.503Z,2.70
2022-12-04T18:51:19.174Z,2.70
2022-12-04T18:53:46.484Z,2.70
2022-12-04T18:56:13.509Z,2.70
2022-12-04T18:58:40.349Z,2.70
2022-12-04T19:01:13.666Z,2.70
2022-12-04T19:03:40.670Z,2.70
2022-12-04T19:06:08.138Z,2.70
2022-12-04T19:08:39.996Z,2.70
2022-12-04T19:11:15.398Z,2.70
2022-12-04T19:13:42.304Z,2.70
2022-12-04T19:16:17.042Z,2.70
2022-12-04T19:18:45.228Z,2.70
2022-12-04T19:21:13.260Z,2.70
2022-12-04T19:23:40.125Z,2.70
2022-12-04T19:26:06.807Z,2.70
2022-12-04T19:28:33.643Z,2.70
2022-12-04T19:31:00.446Z,2.70
2022-12-04T19:33:27.985Z,2.70
2022-12-04T19:35:59.999Z,2.70
2022-12-04T19:38:26.919Z,2.70
2022-12-04T19:41:03.467Z,2.70
2022-12-04T19:43:30.121Z,2.70
2022-12-04T19:45:56.896Z,2.70
2022-12-04T19:48:23.737Z,2.70
2022-12-04T19:50:50.517Z,2.70
2022-12-04T19:53:17.569Z,2.70
2022-12-04T19:55:44.271Z,2.70
2022-12-04T19:58:10.982Z,2.70
2022-12-04T20:00:37.681Z,2.70
2022-12-04T20:03:04.593Z,2.70
2022-12-04T20:05:35.088Z,2.70
2022-12-04T20:10:27.775Z,2.70
2022-12-04T20:12:54.463Z,2.70
2022-12-04T20:15:21.170Z,2.70
2022-12-04T20:17:47.879Z,2.70
2022-12-04T20:20:14.570Z,2.70
2022-12-04T20:22:41.454Z,2.70
2022-12-04T20:25:08.514Z,2.70
2022-12-04T20:27:35.242Z,2.70
2022-12-04T20:30:01.965Z,2.70
2022-12-04T20:32:28.645Z,2.70
2022-12-04T20:34:55.326Z,2.80
2022-12-04T20:37:21.963Z,2.80
2022-12-04T20:39:48.623Z,2.80
2022-12-04T20:42:15.778Z,2.80
2022-12-04T20:44:42.456Z,2.80
2022-12-04T20:47:09.085Z,2.80
2022-12-04T20:49:36.043Z,2.80
2022-12-04T20:52:03.429Z,2.80
2022-12-04T20:54:30.201Z,2.80
2022-12-04T20:56:57.136Z,2.80
2022-12-04T20:59:24.753Z,2.80
2022-12-04T21:01:52.464Z,2.80
2022-12-04T21:04:19.969Z,2.80
2022-12-04T21:06:47.062Z,2.80
2022-12-04T21:09:20.580Z,2.80
2022-12-04T21:11:50.558Z,2.80
2022-12-04T21:14:41.529Z,2.80
2022-12-04T21:17:11.978Z,2.80
2022-12-04T21:19:38.890Z,2.80
2022-12-04T21:22:05.599Z,2.80
2022-12-04T21:24:38.010Z,2.80
2022-12-04T21:27:06.583Z,2.80
2022-12-04T21:29:33.995Z,2.80
2022-12-04T21:32:01.101Z,2.80
2022-12-04T21:34:27.986Z,2.90
2022-12-04T21:36:54.691Z,2.90
2022-12-04T21:39:23.800Z,2.90
2022-12-04T21:42:09.388Z,2.90
2022-12-04T21:44:36.432Z,2.90
2022-12-04T21:47:03.753Z,2.90
2022-12-04T21:49:31.609Z,2.90
2022-12-04T21:51:59.124Z,2.90
2022-12-04T21:54:27.750Z,2.90
2022-12-04T21:56:55.214Z,2.90
2022-12-04T21:59:22.291Z,2.90
2022-12-04T22:01:49.065Z,2.90
2022-12-04T22:04:15.977Z,2.90
2022-12-04T22:06:43.031Z,3.00
2022-12-04T22:09:11.815Z,3.00
2022-12-04T22:11:41.373Z,3.00
2022-12-04T22:14:08.746Z,3.00
2022-12-04T22:16:41.299Z,3.00
2022-12-04T22:19:08.520Z,3.00
2022-12-04T22:21:36.001Z,3.00
2022-12-04T22:24:04.273Z,3.00
2022-12-04T22:26:31.617Z,3.00
2022-12-04T22:28:58.256Z,3.00
2022-12-04T22:31:27.365Z,3.00
2022-12-04T22:33:56.085Z,3.00
2022-12-04T22:36:25.780Z,3.00
2022-12-04T22:39:08.706Z,3.00
2022-12-04T22:41:36.401Z,3.00
2022-12-04T22:44:03.522Z,3.00
2022-12-04T22:46:30.227Z,3.00
2022-12-04T22:48:58.829Z,3.00
2022-12-04T22:51:26.141Z,3.00
2022-12-04T22:53:56.280Z,3.10
2022-12-04T22:56:27.085Z,3.10
2022-12-04T22:58:54.984Z,3.10
2022-12-04T23:01:24.404Z,3.00
2022-12-04T23:03:51.878Z,3.10
2022-12-04T23:06:20.844Z,3.10
2022-12-04T23:08:47.904Z,3.10
2022-12-04T23:11:20.446Z,3.10
2022-12-04T23:13:56.063Z,3.10
2022-12-04T23:16:24.082Z,3.10
2022-12-04T23:18:51.185Z,3.10
2022-12-04T23:21:19.849Z,3.10
2022-12-04T23:23:48.063Z,3.10
2022-12-04T23:26:18.070Z,3.10
2022-12-04T23:28:44.861Z,3.10
2022-12-04T23:31:12.051Z,3.10
2022-12-04T23:33:40.054Z,3.10
2022-12-04T23:36:08.858Z,3.10
2022-12-04T23:38:37.250Z,3.10
2022-12-04T23:41:25.508Z,3.10
2022-12-04T23:43:53.360Z,3.10
2022-12-04T23:46:22.796Z,3.10
2022-12-04T23:48:49.945Z,3.10
2022-12-04T23:51:18.693Z,3.10
2022-12-04T23:53:46.414Z,3.10
2022-12-04T23:56:15.809Z,3.10
2022-12-04T23:58:44.190Z,3.10
